createdAt,value
2023-02-21T00:02:04.881Z,11.00
2023-02-21T00:04:50.567Z,11.00
2023-02-21T00:07:36.403Z,11.00
2023-02-21T00:10:23.547Z,12.10
2023-02-21T00:13:09.626Z,11.70
2023-02-21T00:15:55.013Z,11.00
2023-02-21T00:18:40.837Z,11.00
2023-02-21T00:21:26.463Z,11.00
2023-02-21T00:24:11.876Z,11.00
2023-02-21T00:26:57.208Z,11.00
2023-02-21T00:29:43.401Z,12.40
2023-02-21T00:32:28.962Z,11.00
2023-02-21T00:35:14.754Z,11.00
2023-02-21T00:38:00.133Z,11.00
2023-02-21T00:40:45.520Z,11.00
2023-02-21T00:43:30.946Z,11.70
2023-02-21T00:46:16.726Z,10.90
2023-02-21T00:49:02.145Z,11.00
2023-02-21T00:51:47.524Z,10.90
2023-02-21T00:54:33.038Z,10.90
2023-02-21T00:57:18.615Z,11.20
2023-02-21T01:00:03.978Z,10.90
2023-02-21T01:02:49.523Z,11.20
2023-02-21T01:05:35.307Z,10.90
2023-02-21T01:08:23.812Z,10.90
2023-02-21T01:11:09.844Z,10.90
2023-02-21T01:13:57.763Z,10.90
2023-02-21T01:16:46.146Z,10.80
2023-02-21T01:19:32.488Z,10.80
2023-02-21T01:22:21.026Z,10.80
2023-02-21T01:25:10.739Z,10.80
2023-02-21T01:27:56.049Z,11.40
2023-02-21T01:30:43.047Z,11.50
2023-02-21T01:33:30.115Z,10.80
2023-02-21T01:36:16.329Z,11.30
2023-02-21T01:39:01.872Z,10.80
2023-02-21T01:41:48.636Z,10.80
2023-02-21T01:45:01.771Z,10.80
2023-02-21T01:47:49.327Z,10.70
2023-02-21T01:50:46.845Z,10.70
2023-02-21T01:53:45.726Z,10.70
2023-02-21T01:56:32.333Z,10.70
2023-02-21T01:59:20.298Z,10.70
2023-02-21T02:02:32.497Z,10.70
2023-02-21T02:05:20.644Z,10.70
2023-02-21T02:08:07.609Z,10.80
2023-02-21T02:10:53.112Z,10.70
2023-02-21T02:13:50.164Z,10.60
2023-02-21T02:16:49.833Z,12.30
2023-02-21T02:20:20.217Z,10.60
2023-02-21T02:23:14.430Z,10.60
2023-02-21T02:26:19.287Z,10.60
2023-02-21T02:29:18.606Z,10.60
2023-02-21T02:32:29.328Z,10.60
2023-02-21T02:35:18.455Z,10.60
2023-02-21T02:37:59.251Z,10.50
2023-02-21T02:41:27.642Z,10.60
2023-02-21T02:44:18.687Z,10.50
2023-02-21T02:46:49.499Z,10.50
2023-02-21T02:49:28.174Z,11.70
2023-02-21T02:52:02.695Z,10.50
2023-02-21T02:54:29.885Z,10.50
2023-02-21T02:56:58.898Z,10.50
2023-02-21T02:59:29.945Z,10.50
2023-02-21T03:02:39.002Z,10.50
2023-02-21T03:05:27.874Z,10.50
2023-02-21T03:08:32.118Z,10.40
2023-02-21T03:11:11.325Z,10.50
2023-02-21T03:14:09.591Z,12.00
2023-02-21T03:16:51.487Z,10.40
2023-02-21T03:19:36.104Z,10.50
2023-02-21T03:22:13.615Z,10.40
2023-02-21T03:24:45.598Z,10.40
2023-02-21T03:27:15.948Z,11.20
2023-02-21T03:29:56.792Z,10.40
2023-02-21T03:32:35.593Z,10.40
2023-02-21T03:35:05.186Z,10.40
2023-02-21T03:37:40.684Z,10.40
2023-02-21T03:40:15.319Z,10.40
2023-02-21T03:42:46.974Z,10.40
2023-02-21T03:45:17.347Z,11.00
2023-02-21T03:47:49.904Z,10.40
2023-02-21T03:50:19.127Z,10.50
2023-02-21T03:52:47.147Z,11.50
2023-02-21T03:55:14.804Z,10.50
2023-02-21T03:57:42.561Z,10.40
2023-02-21T04:00:11.398Z,10.50
2023-02-21T04:02:44.835Z,10.50
2023-02-21T04:05:23.035Z,10.50
2023-02-21T04:07:50.321Z,10.50
2023-02-21T04:10:17.368Z,10.50
2023-02-21T04:12:46.075Z,10.50
2023-02-21T04:15:13.184Z,10.50
2023-02-21T04:17:40.533Z,11.80
2023-02-21T04:20:10.068Z,10.50
2023-02-21T04:22:45.736Z,10.50
2023-02-21T04:25:15.699Z,10.50
2023-02-21T04:27:49.120Z,10.50
2023-02-21T04:30:16.774Z,10.80
2023-02-21T04:32:43.769Z,10.60
2023-02-21T04:35:14.504Z,10.50
2023-02-21T04:37:45.045Z,10.40
2023-02-21T04:40:13.934Z,10.40
2023-02-21T04:42:41.087Z,10.40
2023-02-21T04:45:08.667Z,10.40
2023-02-21T04:47:37.088Z,10.40
2023-02-21T04:50:05.798Z,10.40
2023-02-21T04:52:33.188Z,10.40
2023-02-21T04:55:00.254Z,10.40
2023-02-21T04:57:27.241Z,10.40
2023-02-21T04:59:59.965Z,10.50
2023-02-21T05:02:27.958Z,10.40
2023-02-21T05:04:55.029Z,10.40
2023-02-21T05:07:23.131Z,10.40
2023-02-21T05:09:50.165Z,10.40
2023-02-21T05:12:17.229Z,10.40
2023-02-21T05:14:44.213Z,10.40
2023-02-21T05:17:11.338Z,10.40
2023-02-21T05:19:38.467Z,10.40
2023-02-21T05:22:07.567Z,10.40
2023-02-21T05:24:35.392Z,10.40
2023-02-21T05:27:02.438Z,10.40
2023-02-21T05:29:29.762Z,10.60
2023-02-21T05:31:56.882Z,10.10
2023-02-21T05:34:23.946Z,11.60
2023-02-21T05:36:51.013Z,10.40
2023-02-21T05:39:18.148Z,10.50
2023-02-21T05:41:51.984Z,10.40
2023-02-21T05:44:19.030Z,10.40
2023-02-21T05:46:46.192Z,10.30
2023-02-21T05:49:13.491Z,10.30
2023-02-21T05:51:43.736Z,11.30
2023-02-21T05:54:17.731Z,10.30
2023-02-21T05:56:47.162Z,10.80
2023-02-21T05:59:15.993Z,10.30
2023-02-21T06:01:44.098Z,12.00
2023-02-21T06:04:11.038Z,10.30
2023-02-21T06:06:38.059Z,10.70
2023-02-21T06:09:05.907Z,10.30
2023-02-21T06:11:37.602Z,10.50
2023-02-21T06:14:12.778Z,10.30
2023-02-21T06:16:39.865Z,11.30
2023-02-21T06:19:09.365Z,10.20
2023-02-21T06:21:37.118Z,10.30
2023-02-21T06:24:05.226Z,10.30
2023-02-21T06:26:32.954Z,10.20
2023-02-21T06:29:00.356Z,11.30
2023-02-21T06:31:27.602Z,10.20
2023-02-21T06:33:54.506Z,10.20
2023-02-21T06:36:27.186Z,10.20
2023-02-21T06:38:57.133Z,10.20
2023-02-21T06:41:30.092Z,10.20
2023-02-21T06:43:59.396Z,10.20
2023-02-21T06:46:30.288Z,10.20
2023-02-21T06:48:57.936Z,10.30
2023-02-21T06:51:29.955Z,10.20
2023-02-21T06:53:58.377Z,10.20
2023-02-21T06:56:25.439Z,10.20
2023-02-21T06:58:52.983Z,10.20
2023-02-21T07:01:20.671Z,10.20
2023-02-21T07:03:47.798Z,10.20
2023-02-21T07:06:15.514Z,10.20
2023-02-21T07:08:42.852Z,10.20
2023-02-21T07:11:10.067Z,10.20
2023-02-21T07:13:37.956Z,10.70
2023-02-21T07:16:05.920Z,10.20
2023-02-21T07:18:33.719Z,10.20
2023-02-21T07:21:00.948Z,10.20
2023-02-21T07:23:29.275Z,11.20
2023-02-21T07:25:56.213Z,10.20
2023-02-21T07:28:26.132Z,10.40
2023-02-21T07:30:53.215Z,10.10
2023-02-21T07:33:20.245Z,10.10
2023-02-21T07:35:47.339Z,10.10
2023-02-21T07:38:26.782Z,10.10
2023-02-21T07:40:59.533Z,10.10
2023-02-21T07:43:29.854Z,10.10
2023-02-21T07:45:57.670Z,10.10
2023-02-21T07:48:24.695Z,10.50
2023-02-21T07:50:51.784Z,10.00
2023-02-21T07:53:19.128Z,10.00
2023-02-21T07:55:46.161Z,10.00
2023-02-21T07:58:13.177Z,10.00
2023-02-21T08:00:40.657Z,10.00
2023-02-21T08:03:07.931Z,11.60
2023-02-21T08:05:35.746Z,10.00
2023-02-21T08:08:02.775Z,11.40
2023-02-21T08:10:29.753Z,11.30
2023-02-21T08:12:56.755Z,10.10
2023-02-21T08:15:24.063Z,10.10
2023-02-21T08:17:51.723Z,10.10
2023-02-21T08:20:19.606Z,11.80
2023-02-21T08:22:47.120Z,10.20
2023-02-21T08:25:17.128Z,10.20
2023-02-21T08:27:46.387Z,10.20
2023-02-21T08:30:17.036Z,10.20
2023-02-21T08:32:48.279Z,10.20
2023-02-21T08:35:17.430Z,11.80
2023-02-21T08:37:49.899Z,10.30
2023-02-21T08:40:20.324Z,10.30
2023-02-21T08:42:53.536Z,10.30
2023-02-21T08:45:25.806Z,10.30
2023-02-21T08:47:53.532Z,10.30
2023-02-21T08:50:23.670Z,10.30
2023-02-21T08:52:51.514Z,10.30
2023-02-21T08:55:20.246Z,10.30
2023-02-21T08:57:53.120Z,10.40
2023-02-21T09:00:24.176Z,10.40
2023-02-21T09:02:52.307Z,10.40
2023-02-21T09:05:27.602Z,10.40
2023-02-21T09:08:01.669Z,10.50
2023-02-21T09:10:38.643Z,11.40
2023-02-21T09:13:05.923Z,10.60
2023-02-21T09:15:33.042Z,11.20
2023-02-21T09:18:00.965Z,10.60
2023-02-21T09:20:29.009Z,10.70
2023-02-21T09:22:56.159Z,10.70
2023-02-21T09:25:27.868Z,11.70
2023-02-21T09:27:55.189Z,11.60
2023-02-21T09:30:26.726Z,10.80
2023-02-21T09:32:55.035Z,10.90
2023-02-21T09:35:25.308Z,10.90
2023-02-21T09:37:52.693Z,11.00
2023-02-21T09:40:39.096Z,11.00
2023-02-21T09:43:15.975Z,11.00
2023-02-21T09:45:44.789Z,12.10
2023-02-21T09:48:17.841Z,11.10
2023-02-21T09:50:51.845Z,11.10
2023-02-21T09:53:33.316Z,11.10
2023-02-21T09:56:06.355Z,11.20
2023-02-21T09:58:35.808Z,11.20
2023-02-21T10:01:20.719Z,13.10
2023-02-21T10:03:59.560Z,11.30
2023-02-21T10:07:04.222Z,11.40
2023-02-21T10:10:14.634Z,11.40
2023-02-21T10:13:23.558Z,11.40
2023-02-21T10:16:08.299Z,11.40
2023-02-21T10:19:02.601Z,11.50
2023-02-21T10:21:37.839Z,11.50
2023-02-21T10:24:15.649Z,11.50
2023-02-21T10:26:53.619Z,11.10
2023-02-21T10:29:26.837Z,11.10
2023-02-21T10:32:04.106Z,11.60
2023-02-21T10:34:35.304Z,11.50
2023-02-21T10:37:39.658Z,11.50
2023-02-21T10:40:48.212Z,11.50
2023-02-21T10:43:37.528Z,11.60
2023-02-21T10:46:36.866Z,11.60
2023-02-21T10:49:29.083Z,11.50
2023-02-21T10:52:21.258Z,11.60
2023-02-21T10:55:31.244Z,11.60
2023-02-21T10:58:07.468Z,11.60
2023-02-21T11:00:49.094Z,11.60
2023-02-21T11:03:18.895Z,11.60
2023-02-21T11:05:57.801Z,11.60
2023-02-21T11:08:54.549Z,12.10
2023-02-21T11:11:41.051Z,11.70
2023-02-21T11:14:25.258Z,13.00
2023-02-21T11:17:14.342Z,11.80
2023-02-21T11:20:07.691Z,11.90
2023-02-21T11:22:44.008Z,11.90
2023-02-21T11:25:36.569Z,13.50
2023-02-21T11:28:27.729Z,12.10
2023-02-21T11:31:32.733Z,12.10
2023-02-21T11:34:07.398Z,12.20
2023-02-21T11:36:38.740Z,13.00
2023-02-21T11:39:18.937Z,12.30
2023-02-21T11:42:06.801Z,12.30
2023-02-21T11:44:40.444Z,13.20
2023-02-21T11:47:35.732Z,12.50
2023-02-21T11:50:27.323Z,12.50
2023-02-21T11:53:22.710Z,12.50
2023-02-21T11:56:24.142Z,12.60
2023-02-21T11:59:20.677Z,12.60
2023-02-21T12:02:03.554Z,13.90
2023-02-21T12:04:48.927Z,13.60
2023-02-21T12:07:45.365Z,12.90
2023-02-21T12:10:32.158Z,13.00
2023-02-21T12:13:20.864Z,13.10
2023-02-21T12:16:03.733Z,13.20
2023-02-21T12:18:39.448Z,13.20
2023-02-21T12:21:33.037Z,14.40
2023-02-21T12:24:14.390Z,13.40
2023-02-21T12:27:11.704Z,13.40
2023-02-21T12:30:20.848Z,13.40
2023-02-21T12:33:29.313Z,13.50
2023-02-21T12:36:34.752Z,13.50
2023-02-21T12:39:50.883Z,13.50
2023-02-21T12:43:10.710Z,13.50
2023-02-21T12:46:09.880Z,13.50
2023-02-21T12:49:00.872Z,13.50
2023-02-21T12:51:42.589Z,13.50
2023-02-21T12:54:24.239Z,13.40
2023-02-21T12:57:05.338Z,13.40
2023-02-21T12:59:59.521Z,13.40
2023-02-21T13:03:24.328Z,13.40
2023-02-21T13:06:14.756Z,14.90
2023-02-21T13:09:07.041Z,13.40
2023-02-21T13:11:47.662Z,13.40
2023-02-21T13:14:32.928Z,14.50
2023-02-21T13:17:00.472Z,13.40
2023-02-21T13:19:43.829Z,13.40
2023-02-21T13:23:17.805Z,13.30
2023-02-21T13:26:06.691Z,13.30
2023-02-21T13:28:38.847Z,13.20
2023-02-21T13:31:25.077Z,13.10
2023-02-21T13:33:57.469Z,13.10
2023-02-21T13:36:45.182Z,13.10
2023-02-21T13:39:37.580Z,13.10
2023-02-21T13:42:21.163Z,13.10
2023-02-21T13:45:24.583Z,13.10
2023-02-21T13:47:57.744Z,13.80
2023-02-21T13:50:40.167Z,13.00
2023-02-21T13:53:16.607Z,13.00
2023-02-21T13:56:08.355Z,12.90
2023-02-21T13:58:47.916Z,12.80
2023-02-21T14:01:30.220Z,13.60
2023-02-21T14:03:57.787Z,12.70
2023-02-21T14:06:32.703Z,12.60
2023-02-21T14:09:11.908Z,12.60
2023-02-21T14:11:49.080Z,12.50
2023-02-21T14:14:34.911Z,12.40
2023-02-21T14:17:09.532Z,12.30
2023-02-21T14:19:50.380Z,12.40
2023-02-21T14:22:27.053Z,12.20
2023-02-21T14:25:16.788Z,12.20
2023-02-21T14:27:45.026Z,12.20
2023-02-21T14:30:12.284Z,12.20
2023-02-21T14:32:46.693Z,12.20
2023-02-21T14:35:16.740Z,12.20
2023-02-21T14:38:09.799Z,12.30
2023-02-21T14:40:54.953Z,13.80
2023-02-21T14:43:49.815Z,12.30
2023-02-21T14:46:38.117Z,12.30
2023-02-21T14:49:48.444Z,12.30
2023-02-21T14:53:04.313Z,12.30
2023-02-21T14:55:59.138Z,12.30
2023-02-21T14:58:55.754Z,12.30
2023-02-21T15:01:47.751Z,12.30
2023-02-21T15:04:30.136Z,12.30
2023-02-21T15:07:28.568Z,12.30
2023-02-21T15:10:27.657Z,12.20
2023-02-21T15:13:05.130Z,12.10
2023-02-21T15:15:43.027Z,12.00
2023-02-21T15:18:38.762Z,11.90
2023-02-21T15:21:11.639Z,11.90
2023-02-21T15:23:49.313Z,11.90
2023-02-21T15:26:33.002Z,11.70
2023-02-21T15:29:18.414Z,11.70
2023-02-21T15:31:57.227Z,11.60
2023-02-21T15:34:39.088Z,11.60
2023-02-21T15:37:38.940Z,11.50
2023-02-21T15:40:19.044Z,11.50
2023-02-21T15:42:50.343Z,11.40
2023-02-21T15:45:48.996Z,11.40
2023-02-21T15:48:17.427Z,11.40
2023-02-21T15:50:46.920Z,11.30
2023-02-21T15:53:25.161Z,12.90
2023-02-21T15:55:53.889Z,11.20
2023-02-21T15:58:27.907Z,11.20
2023-02-21T16:01:09.573Z,11.10
2023-02-21T16:03:47.078Z,11.10
2023-02-21T16:06:28.343Z,11.20
2023-02-21T16:09:25.650Z,11.00
2023-02-21T16:12:04.905Z,10.90
2023-02-21T16:14:40.300Z,10.90
2023-02-21T16:17:27.802Z,10.90
2023-02-21T16:19:59.803Z,10.80
2023-02-21T16:22:34.168Z,10.80
2023-02-21T16:25:11.414Z,10.70
2023-02-21T16:27:40.407Z,10.70
2023-02-21T16:30:32.576Z,11.40
2023-02-21T16:33:03.676Z,10.60
2023-02-21T16:35:32.381Z,10.90
2023-02-21T16:38:01.969Z,10.60
2023-02-21T16:40:34.995Z,11.00
2023-02-21T16:43:04.876Z,10.60
2023-02-21T16:45:33.124Z,11.90
2023-02-21T16:48:08.856Z,10.60
2023-02-21T16:50:40.155Z,10.50
2023-02-21T16:53:12.674Z,10.50
2023-02-21T16:55:40.652Z,11.00
2023-02-21T16:58:30.037Z,10.50
2023-02-21T17:01:06.309Z,10.40
2023-02-21T17:03:33.521Z,11.90
2023-02-21T17:06:01.576Z,10.40
2023-02-21T17:08:29.104Z,11.00
2023-02-21T17:10:57.707Z,10.50
2023-02-21T17:13:25.881Z,10.40
2023-02-21T17:15:54.672Z,10.30
2023-02-21T17:18:21.872Z,10.20
2023-02-21T17:20:49.024Z,10.20
2023-02-21T17:23:16.011Z,10.80
2023-02-21T17:25:42.903Z,10.10
2023-02-21T17:28:09.906Z,10.10
2023-02-21T17:30:38.335Z,10.20
2023-02-21T17:33:05.821Z,10.00
2023-02-21T17:35:32.779Z,10.10
2023-02-21T17:38:03.018Z,10.10
2023-02-21T17:40:30.648Z,10.00
2023-02-21T17:42:58.698Z,10.20
2023-02-21T17:45:26.618Z,10.10
2023-02-21T17:47:56.921Z,10.10
2023-02-21T17:50:25.605Z,10.10
2023-02-21T17:52:52.717Z,11.40
2023-02-21T17:55:25.999Z,11.40
2023-02-21T17:57:53.512Z,10.10
2023-02-21T18:00:25.633Z,10.20
2023-02-21T18:02:55.499Z,10.20
2023-02-21T18:05:23.675Z,10.20
2023-02-21T18:07:53.424Z,10.20
2023-02-21T18:10:24.184Z,10.40
2023-02-21T18:12:53.124Z,10.40
2023-02-21T18:15:23.715Z,10.70
2023-02-21T18:17:51.099Z,10.20
2023-02-21T18:20:18.306Z,10.70
2023-02-21T18:22:45.926Z,10.20
2023-02-21T18:25:15.908Z,11.20
2023-02-21T18:27:43.533Z,10.30
2023-02-21T18:30:11.527Z,10.30
2023-02-21T18:32:38.783Z,10.30
2023-02-21T18:35:06.317Z,10.30
2023-02-21T18:37:35.860Z,10.30
2023-02-21T18:40:05.482Z,12.10
2023-02-21T18:42:32.595Z,11.20
2023-02-21T18:44:59.724Z,10.40
2023-02-21T18:47:27.622Z,10.40
2023-02-21T18:49:56.687Z,10.40
2023-02-21T18:52:25.485Z,9.00
2023-02-21T18:54:52.790Z,10.40
2023-02-21T18:57:23.260Z,10.40
2023-02-21T18:59:50.756Z,10.40
2023-02-21T19:02:19.564Z,10.40
2023-02-21T19:04:47.125Z,10.30
2023-02-21T19:07:19.075Z,10.30
2023-02-21T19:09:50.187Z,10.20
2023-02-21T19:12:18.000Z,10.20
2023-02-21T19:14:45.102Z,10.20
2023-02-21T19:17:12.116Z,10.10
2023-02-21T19:19:39.561Z,10.10
2023-02-21T19:22:06.782Z,10.10
2023-02-21T19:24:34.163Z,11.60
2023-02-21T19:27:02.101Z,10.10
2023-02-21T19:29:29.419Z,11.00
2023-02-21T19:31:57.212Z,10.00
2023-02-21T19:34:24.299Z,10.20
2023-02-21T19:36:51.353Z,10.00
2023-02-21T19:39:18.795Z,10.30
2023-02-21T19:41:46.387Z,9.90
2023-02-21T19:44:13.689Z,9.90
2023-02-21T19:46:40.892Z,10.40
2023-02-21T19:49:20.465Z,9.90
2023-02-21T19:51:51.062Z,9.90
2023-02-21T19:54:24.373Z,11.60
2023-02-21T19:56:52.204Z,11.10
2023-02-21T19:59:19.494Z,9.90
2023-02-21T20:01:47.736Z,9.80
2023-02-21T20:04:16.816Z,11.10
2023-02-21T20:06:45.279Z,10.60
2023-02-21T20:09:12.539Z,10.90
2023-02-21T20:11:40.473Z,9.80
2023-02-21T20:14:13.182Z,9.80
2023-02-21T20:16:43.181Z,9.70
2023-02-21T20:19:12.484Z,9.70
2023-02-21T20:21:40.257Z,9.70
2023-02-21T20:24:07.458Z,10.60
2023-02-21T20:26:34.918Z,9.70
2023-02-21T20:29:02.404Z,9.70
2023-02-21T20:31:37.393Z,9.70
2023-02-21T20:34:06.768Z,10.10
2023-02-21T20:36:38.063Z,11.50
2023-02-21T20:39:19.390Z,9.70
2023-02-21T20:41:47.305Z,9.00
2023-02-21T20:44:14.780Z,9.90
2023-02-21T20:46:42.051Z,9.70
2023-02-21T20:49:09.296Z,9.70
2023-02-21T20:51:40.843Z,9.30
2023-02-21T20:54:11.314Z,9.70
2023-02-21T20:56:41.539Z,9.70
2023-02-21T20:59:16.336Z,9.70
2023-02-21T21:01:51.060Z,9.70
2023-02-21T21:04:28.269Z,9.70
2023-02-21T21:07:03.079Z,9.70
2023-02-21T21:09:34.063Z,9.90
2023-02-21T21:12:09.087Z,9.70
2023-02-21T21:14:41.671Z,9.70
2023-02-21T21:17:12.864Z,9.70
2023-02-21T21:19:44.107Z,9.70
2023-02-21T21:22:18.329Z,9.90
2023-02-21T21:24:45.591Z,9.70
2023-02-21T21:27:15.314Z,9.70
2023-02-21T21:29:45.303Z,9.70
2023-02-21T21:32:18.204Z,9.60
2023-02-21T21:34:53.379Z,10.20
2023-02-21T21:37:28.665Z,10.70
2023-02-21T21:39:57.045Z,9.90
2023-02-21T21:42:28.120Z,9.60
2023-02-21T21:44:57.473Z,9.50
2023-02-21T21:47:28.792Z,9.50
2023-02-21T21:49:55.952Z,10.40
2023-02-21T21:52:25.063Z,10.30
2023-02-21T21:54:53.002Z,9.50
2023-02-21T21:57:24.254Z,9.50
2023-02-21T21:59:53.060Z,9.50
2023-02-21T22:02:21.607Z,9.50
2023-02-21T22:04:48.799Z,10.50
2023-02-21T22:07:15.815Z,9.60
2023-02-21T22:09:42.756Z,9.40
2023-02-21T22:12:18.756Z,9.40
2023-02-21T22:14:45.764Z,9.30
2023-02-21T22:17:12.829Z,9.30
2023-02-21T22:19:40.796Z,9.30
2023-02-21T22:22:08.386Z,9.30
2023-02-21T22:24:40.038Z,9.30
2023-02-21T22:27:07.345Z,9.30
2023-02-21T22:29:34.367Z,11.10
2023-02-21T22:32:01.613Z,10.20
2023-02-21T22:34:28.617Z,9.20
2023-02-21T22:36:57.689Z,9.30
2023-02-21T22:39:27.586Z,10.80
2023-02-21T22:41:54.825Z,9.20
2023-02-21T22:44:24.947Z,9.20
2023-02-21T22:46:58.620Z,10.10
2023-02-21T22:49:30.769Z,9.20
2023-02-21T22:51:58.063Z,9.20
2023-02-21T22:54:26.508Z,9.20
2023-02-21T22:56:54.916Z,10.90
2023-02-21T22:59:26.846Z,9.20
2023-02-21T23:01:53.935Z,9.20
2023-02-21T23:04:27.318Z,10.70
2023-02-21T23:06:57.350Z,9.10
2023-02-21T23:09:26.316Z,9.10
2023-02-21T23:11:58.340Z,10.50
2023-02-21T23:14:27.366Z,10.10
2023-02-21T23:16:58.798Z,10.10
2023-02-21T23:19:27.894Z,10.90
2023-02-21T23:21:57.788Z,10.20
2023-02-21T23:24:25.441Z,9.10
2023-02-21T23:26:54.657Z,9.60
2023-02-21T23:29:26.435Z,9.10
2023-02-21T23:32:10.034Z,9.00
2023-02-21T23:34:40.849Z,9.60
2023-02-21T23:37:11.991Z,9.00
2023-02-21T23:39:40.913Z,9.90
2023-02-21T23:42:07.832Z,8.90
2023-02-21T23:44:36.366Z,10.30
2023-02-21T23:47:06.241Z,8.90
2023-02-21T23:49:33.490Z,9.40
2023-02-21T23:52:01.929Z,10.70
2023-02-21T23:54:29.172Z,8.90
2023-02-21T23:57:00.969Z,8.90
2023-02-21T23:59:28.962Z,8.90
